sensor_id;sensor_type;location;lat;lon;timestamp;pressure;altitude;pressure_sealevel;temperature;humidity
40788;BME280;26497;52.494;7.546;2023-03-26T00:00:50;99927.19;;;12.69;63.91
40788;BME280;26497;52.494;7.546;2023-03-26T00:03:19;99928.16;;;12.65;64.35
40788;BME280;26497;52.494;7.546;2023-03-26T00:05:47;99932.44;;;12.71;64.29
40788;BME280;26497;52.494;7.546;2023-03-26T00:08:15;99928.09;;;12.68;63.97
40788;BME280;26497;52.494;7.546;2023-03-26T00:10:43;99931.50;;;12.74;63.65
40788;BME280;26497;52.494;7.546;2023-03-26T00:13:10;99934.91;;;12.79;63.10
40788;BME280;26497;52.494;7.546;2023-03-26T00:15:37;99937.88;;;12.63;63.21
40788;BME280;26497;52.494;7.546;2023-03-26T00:18:06;99944.44;;;12.45;63.85
40788;BME280;26497;52.494;7.546;2023-03-26T00:20:33;99946.09;;;12.51;63.69
40788;BME280;26497;52.494;7.546;2023-03-26T00:23:00;99936.97;;;12.66;63.26
40788;BME280;26497;52.494;7.546;2023-03-26T00:25:28;99943.88;;;12.72;63.25
40788;BME280;26497;52.494;7.546;2023-03-26T00:27:56;99940.94;;;12.45;63.45
40788;BME280;26497;52.494;7.546;2023-03-26T00:30:23;99949.72;;;12.45;63.15
40788;BME280;26497;52.494;7.546;2023-03-26T00:32:51;99947.00;;;12.50;62.92
40788;BME280;26497;52.494;7.546;2023-03-26T00:35:19;99953.19;;;12.49;63.12
40788;BME280;26497;52.494;7.546;2023-03-26T00:37:47;99953.91;;;12.56;63.24
40788;BME280;26497;52.494;7.546;2023-03-26T00:40:19;99950.25;;;12.63;63.06
40788;BME280;26497;52.494;7.546;2023-03-26T00:42:46;99951.03;;;12.66;62.90
40788;BME280;26497;52.494;7.546;2023-03-26T00:45:13;99951.75;;;12.76;62.56
40788;BME280;26497;52.494;7.546;2023-03-26T00:47:41;99955.97;;;12.85;62.37
40788;BME280;26497;52.494;7.546;2023-03-26T00:50:10;99965.69;;;12.85;62.40
40788;BME280;26497;52.494;7.546;2023-03-26T00:52:41;99963.94;;;12.83;62.29
40788;BME280;26497;52.494;7.546;2023-03-26T00:55:10;99958.75;;;12.79;62.19
40788;BME280;26497;52.494;7.546;2023-03-26T00:57:37;99960.28;;;12.89;61.83
40788;BME280;26497;52.494;7.546;2023-03-26T01:00:07;99953.56;;;12.73;61.93
40788;BME280;26497;52.494;7.546;2023-03-26T01:02:35;99952.59;;;12.77;62.16
40788;BME280;26497;52.494;7.546;2023-03-26T01:05:45;99963.16;;;12.78;62.41
40788;BME280;26497;52.494;7.546;2023-03-26T01:08:23;99958.16;;;12.64;62.60
40788;BME280;26497;52.494;7.546;2023-03-26T01:10:51;99959.19;;;12.57;62.86
40788;BME280;26497;52.494;7.546;2023-03-26T01:13:29;99950.06;;;12.72;62.66
40788;BME280;26497;52.494;7.546;2023-03-26T01:15:58;99958.19;;;12.61;62.85
40788;BME280;26497;52.494;7.546;2023-03-26T01:18:29;99958.09;;;12.67;63.09
40788;BME280;26497;52.494;7.546;2023-03-26T01:21:00;99957.25;;;12.65;63.34
40788;BME280;26497;52.494;7.546;2023-03-26T01:23:42;99946.53;;;12.73;63.08
40788;BME280;26497;52.494;7.546;2023-03-26T01:26:25;99953.00;;;12.58;63.15
40788;BME280;26497;52.494;7.546;2023-03-26T01:28:58;99951.31;;;12.54;63.12
40788;BME280;26497;52.494;7.546;2023-03-26T01:31:29;99941.38;;;12.65;62.80
40788;BME280;26497;52.494;7.546;2023-03-26T01:34:09;99942.91;;;12.32;62.77
40788;BME280;26497;52.494;7.546;2023-03-26T01:36:47;99941.78;;;12.45;62.26
40788;BME280;26497;52.494;7.546;2023-03-26T01:39:24;99936.06;;;12.23;62.37
40788;BME280;26497;52.494;7.546;2023-03-26T01:41:57;99932.06;;;11.97;62.93
40788;BME280;26497;52.494;7.546;2023-03-26T01:44:36;99929.06;;;11.69;63.45
40788;BME280;26497;52.494;7.546;2023-03-26T01:47:05;99926.59;;;11.56;63.53
40788;BME280;26497;52.494;7.546;2023-03-26T01:49:33;99917.94;;;11.46;63.57
40788;BME280;26497;52.494;7.546;2023-03-26T01:52:00;99910.25;;;11.31;63.63
40788;BME280;26497;52.494;7.546;2023-03-26T01:54:29;99922.03;;;11.10;63.96
40788;BME280;26497;52.494;7.546;2023-03-26T01:57:06;99920.53;;;10.91;64.92
40788;BME280;26497;52.494;7.546;2023-03-26T01:59:51;99930.38;;;10.77;65.96
40788;BME280;26497;52.494;7.546;2023-03-26T02:02:25;99921.69;;;10.67;65.98
40788;BME280;26497;52.494;7.546;2023-03-26T02:05:03;99917.41;;;10.61;66.66
40788;BME280;26497;52.494;7.546;2023-03-26T02:07:42;99929.78;;;10.53;67.29
40788;BME280;26497;52.494;7.546;2023-03-26T02:10:17;99918.22;;;10.65;67.42
40788;BME280;26497;52.494;7.546;2023-03-26T02:12:48;99915.38;;;10.82;67.40
40788;BME280;26497;52.494;7.546;2023-03-26T02:15:16;99919.69;;;10.88;66.81
40788;BME280;26497;52.494;7.546;2023-03-26T02:17:43;99911.00;;;10.81;66.49
40788;BME280;26497;52.494;7.546;2023-03-26T02:20:12;99904.91;;;10.74;65.62
40788;BME280;26497;52.494;7.546;2023-03-26T02:22:41;99907.81;;;10.56;65.75
40788;BME280;26497;52.494;7.546;2023-03-26T02:25:12;99906.28;;;10.31;67.23
40788;BME280;26497;52.494;7.546;2023-03-26T02:27:41;99906.31;;;10.28;67.14
40788;BME280;26497;52.494;7.546;2023-03-26T02:30:15;99900.19;;;10.26;67.29
40788;BME280;26497;52.494;7.546;2023-03-26T02:32:43;99899.34;;;10.26;67.02
40788;BME280;26497;52.494;7.546;2023-03-26T02:35:11;99902.03;;;10.20;67.69
40788;BME280;26497;52.494;7.546;2023-03-26T02:37:38;99900.34;;;10.14;67.65
40788;BME280;26497;52.494;7.546;2023-03-26T02:40:08;99891.53;;;10.15;67.42
40788;BME280;26497;52.494;7.546;2023-03-26T02:42:37;99893.44;;;10.02;67.33
40788;BME280;26497;52.494;7.546;2023-03-26T02:45:05;99889.97;;;9.97;68.24
40788;BME280;26497;52.494;7.546;2023-03-26T02:47:34;99884.63;;;10.04;67.56
40788;BME280;26497;52.494;7.546;2023-03-26T02:50:01;99889.94;;;10.00;67.83
40788;BME280;26497;52.494;7.546;2023-03-26T02:52:29;99887.22;;;10.08;67.67
40788;BME280;26497;52.494;7.546;2023-03-26T02:54:56;99885.28;;;10.27;67.30
40788;BME280;26497;52.494;7.546;2023-03-26T02:57:24;99893.22;;;10.22;66.92
40788;BME280;26497;52.494;7.546;2023-03-26T02:59:51;99886.25;;;10.15;66.98
40788;BME280;26497;52.494;7.546;2023-03-26T03:02:18;99885.31;;;10.24;67.07
40788;BME280;26497;52.494;7.546;2023-03-26T03:04:48;99876.50;;;10.25;66.75
40788;BME280;26497;52.494;7.546;2023-03-26T03:07:16;99880.63;;;10.49;66.51
40788;BME280;26497;52.494;7.546;2023-03-26T03:09:43;99877.16;;;10.49;67.22
40788;BME280;26497;52.494;7.546;2023-03-26T03:12:10;99871.75;;;10.58;67.62
40788;BME280;26497;52.494;7.546;2023-03-26T03:14:37;99871.44;;;10.80;67.16
40788;BME280;26497;52.494;7.546;2023-03-26T03:17:05;99877.28;;;11.02;66.72
40788;BME280;26497;52.494;7.546;2023-03-26T03:19:32;99878.00;;;11.12;66.68
40788;BME280;26497;52.494;7.546;2023-03-26T03:22:01;99866.53;;;11.16;66.73
40788;BME280;26497;52.494;7.546;2023-03-26T03:24:28;99871.69;;;11.22;66.85
40788;BME280;26497;52.494;7.546;2023-03-26T03:26:58;99869.00;;;11.25;66.95
40788;BME280;26497;52.494;7.546;2023-03-26T03:29:25;99875.09;;;11.29;67.13
40788;BME280;26497;52.494;7.546;2023-03-26T03:31:52;99870.59;;;11.35;67.38
40788;BME280;26497;52.494;7.546;2023-03-26T03:34:20;99859.91;;;11.43;67.16
40788;BME280;26497;52.494;7.546;2023-03-26T03:36:48;99859.69;;;11.57;66.83
40788;BME280;26497;52.494;7.546;2023-03-26T03:39:16;99859.59;;;11.62;66.93
40788;BME280;26497;52.494;7.546;2023-03-26T03:41:43;99856.91;;;11.65;67.02
40788;BME280;26497;52.494;7.546;2023-03-26T03:44:10;99850.72;;;11.68;66.88
40788;BME280;26497;52.494;7.546;2023-03-26T03:46:37;99855.94;;;11.69;66.94
40788;BME280;26497;52.494;7.546;2023-03-26T03:49:04;99860.28;;;11.75;67.20
40788;BME280;26497;52.494;7.546;2023-03-26T03:51:31;99855.84;;;11.75;67.14
40788;BME280;26497;52.494;7.546;2023-03-26T03:53:58;99856.88;;;11.67;67.59
40788;BME280;26497;52.494;7.546;2023-03-26T03:56:26;99858.59;;;11.71;67.87
40788;BME280;26497;52.494;7.546;2023-03-26T03:58:53;99859.22;;;11.84;68.03
40788;BME280;26497;52.494;7.546;2023-03-26T04:01:22;99853.69;;;11.96;67.72
40788;BME280;26497;52.494;7.546;2023-03-26T04:03:49;99850.13;;;12.00;67.72
40788;BME280;26497;52.494;7.546;2023-03-26T04:06:17;99848.03;;;12.16;67.39
40788;BME280;26497;52.494;7.546;2023-03-26T04:08:44;99845.47;;;12.13;67.43
40788;BME280;26497;52.494;7.546;2023-03-26T04:11:12;99846.16;;;12.23;67.11
40788;BME280;26497;52.494;7.546;2023-03-26T04:13:40;99839.00;;;12.28;66.94
40788;BME280;26497;52.494;7.546;2023-03-26T04:16:08;99840.81;;;12.26;66.87
40788;BME280;26497;52.494;7.546;2023-03-26T04:18:35;99838.19;;;12.24;66.92
40788;BME280;26497;52.494;7.546;2023-03-26T04:21:03;99845.16;;;12.29;67.09
40788;BME280;26497;52.494;7.546;2023-03-26T04:23:33;99833.56;;;12.36;66.72
40788;BME280;26497;52.494;7.546;2023-03-26T04:26:02;99833.50;;;12.39;66.60
40788;BME280;26497;52.494;7.546;2023-03-26T04:28:40;99842.38;;;12.36;66.93
40788;BME280;26497;52.494;7.546;2023-03-26T04:31:13;99839.75;;;12.35;67.25
40788;BME280;26497;52.494;7.546;2023-03-26T04:33:44;99835.34;;;12.35;67.34
40788;BME280;26497;52.494;7.546;2023-03-26T04:36:12;99835.16;;;12.43;67.40
40788;BME280;26497;52.494;7.546;2023-03-26T04:38:42;99832.50;;;12.45;67.38
40788;BME280;26497;52.494;7.546;2023-03-26T04:41:11;99826.50;;;12.36;67.51
40788;BME280;26497;52.494;7.546;2023-03-26T04:43:39;99817.75;;;12.34;67.58
40788;BME280;26497;52.494;7.546;2023-03-26T04:46:08;99812.44;;;12.34;67.57
40788;BME280;26497;52.494;7.546;2023-03-26T04:48:35;99822.25;;;12.29;67.63
40788;BME280;26497;52.494;7.546;2023-03-26T04:51:04;99818.19;;;12.13;68.10
40788;BME280;26497;52.494;7.546;2023-03-26T04:53:32;99821.59;;;12.18;68.24
40788;BME280;26497;52.494;7.546;2023-03-26T04:56:05;99810.72;;;12.32;68.07
40788;BME280;26497;52.494;7.546;2023-03-26T04:58:34;99808.78;;;12.40;68.02
40788;BME280;26497;52.494;7.546;2023-03-26T05:01:03;99808.59;;;12.49;67.58
40788;BME280;26497;52.494;7.546;2023-03-26T05:03:31;99806.75;;;12.53;67.39
40788;BME280;26497;52.494;7.546;2023-03-26T05:05:59;99807.44;;;12.61;67.27
40788;BME280;26497;52.494;7.546;2023-03-26T05:08:26;99809.16;;;12.64;67.13
40788;BME280;26497;52.494;7.546;2023-03-26T05:10:54;99802.06;;;12.66;67.06
40788;BME280;26497;52.494;7.546;2023-03-26T05:13:21;99812.84;;;12.57;67.56
40788;BME280;26497;52.494;7.546;2023-03-26T05:15:49;99811.94;;;12.58;67.35
40788;BME280;26497;52.494;7.546;2023-03-26T05:18:17;99792.03;;;12.79;66.83
40788;BME280;26497;52.494;7.546;2023-03-26T05:20:45;99797.81;;;12.96;65.60
40788;BME280;26497;52.494;7.546;2023-03-26T05:23:12;99785.47;;;12.97;65.16
40788;BME280;26497;52.494;7.546;2023-03-26T05:25:39;99785.31;;;13.03;64.88
40788;BME280;26497;52.494;7.546;2023-03-26T05:28:06;99786.66;;;12.83;65.43
40788;BME280;26497;52.494;7.546;2023-03-26T05:30:34;99789.75;;;12.65;66.28
40788;BME280;26497;52.494;7.546;2023-03-26T05:33:01;99794.25;;;12.60;66.73
40788;BME280;26497;52.494;7.546;2023-03-26T05:35:29;99790.66;;;12.62;67.09
40788;BME280;26497;52.494;7.546;2023-03-26T05:37:57;99792.31;;;12.66;66.82
40788;BME280;26497;52.494;7.546;2023-03-26T05:40:24;99798.44;;;12.68;66.91
40788;BME280;26497;52.494;7.546;2023-03-26T05:42:51;99789.59;;;12.71;67.25
40788;BME280;26497;52.494;7.546;2023-03-26T05:45:18;99791.34;;;12.72;67.02
40788;BME280;26497;52.494;7.546;2023-03-26T05:47:46;99790.31;;;12.78;67.06
40788;BME280;26497;52.494;7.546;2023-03-26T05:50:14;99783.06;;;12.86;67.08
40788;BME280;26497;52.494;7.546;2023-03-26T05:52:41;99781.19;;;12.91;67.05
40788;BME280;26497;52.494;7.546;2023-03-26T05:55:10;99782.84;;;12.95;67.05
40788;BME280;26497;52.494;7.546;2023-03-26T05:57:39;99783.38;;;13.10;66.95
40788;BME280;26497;52.494;7.546;2023-03-26T06:00:08;99778.59;;;13.24;66.71
40788;BME280;26497;52.494;7.546;2023-03-26T06:02:37;99780.13;;;13.33;66.53
40788;BME280;26497;52.494;7.546;2023-03-26T06:05:04;99775.66;;;13.35;66.49
40788;BME280;26497;52.494;7.546;2023-03-26T06:07:32;99771.16;;;13.39;66.71
40788;BME280;26497;52.494;7.546;2023-03-26T06:09:59;99771.72;;;13.52;66.77
40788;BME280;26497;52.494;7.546;2023-03-26T06:12:28;99771.50;;;13.61;66.72
40788;BME280;26497;52.494;7.546;2023-03-26T06:14:55;99764.84;;;13.79;66.62
40788;BME280;26497;52.494;7.546;2023-03-26T06:17:22;99764.56;;;13.89;66.62
40788;BME280;26497;52.494;7.546;2023-03-26T06:19:49;99760.44;;;14.08;66.51
40788;BME280;26497;52.494;7.546;2023-03-26T06:22:16;99756.22;;;14.33;65.77
40788;BME280;26497;52.494;7.546;2023-03-26T06:24:43;99760.22;;;14.46;65.26
40788;BME280;26497;52.494;7.546;2023-03-26T06:27:10;99753.03;;;14.50;64.78
40788;BME280;26497;52.494;7.546;2023-03-26T06:29:38;99753.03;;;14.50;64.63
40788;BME280;26497;52.494;7.546;2023-03-26T06:32:05;99751.81;;;14.60;63.79
40788;BME280;26497;52.494;7.546;2023-03-26T06:34:32;99754.84;;;14.49;64.21
40788;BME280;26497;52.494;7.546;2023-03-26T06:36:59;99747.78;;;14.48;64.60
40788;BME280;26497;52.494;7.546;2023-03-26T06:39:26;99745.69;;;14.58;64.51
40788;BME280;26497;52.494;7.546;2023-03-26T06:41:53;99740.41;;;14.58;65.07
40788;BME280;26497;52.494;7.546;2023-03-26T06:44:20;99748.75;;;14.74;65.10
40788;BME280;26497;52.494;7.546;2023-03-26T06:46:49;99746.22;;;14.98;64.91
40788;BME280;26497;52.494;7.546;2023-03-26T06:49:16;99739.84;;;15.03;65.01
40788;BME280;26497;52.494;7.546;2023-03-26T06:51:43;99743.47;;;15.26;64.67
40788;BME280;26497;52.494;7.546;2023-03-26T06:54:11;99752.03;;;15.36;64.37
40788;BME280;26497;52.494;7.546;2023-03-26T06:56:39;99738.56;;;15.41;63.50
40788;BME280;26497;52.494;7.546;2023-03-26T06:59:06;99732.91;;;15.50;62.42
40788;BME280;26497;52.494;7.546;2023-03-26T07:01:33;99736.13;;;15.60;61.20
40788;BME280;26497;52.494;7.546;2023-03-26T07:04:01;99736.06;;;15.61;60.62
40788;BME280;26497;52.494;7.546;2023-03-26T07:06:28;99738.97;;;15.79;57.83
40788;BME280;26497;52.494;7.546;2023-03-26T07:08:55;99731.13;;;15.76;58.46
40788;BME280;26497;52.494;7.546;2023-03-26T07:11:22;99733.31;;;15.90;59.13
40788;BME280;26497;52.494;7.546;2023-03-26T07:13:51;99722.38;;;16.21;57.37
40788;BME280;26497;52.494;7.546;2023-03-26T07:16:21;99721.75;;;16.37;57.08
40788;BME280;26497;52.494;7.546;2023-03-26T07:18:48;99714.91;;;16.54;56.36
40788;BME280;26497;52.494;7.546;2023-03-26T07:21:17;99714.63;;;16.60;55.02
40788;BME280;26497;52.494;7.546;2023-03-26T07:23:47;99714.38;;;16.66;53.52
40788;BME280;26497;52.494;7.546;2023-03-26T07:26:24;99707.72;;;16.56;52.42
40788;BME280;26497;52.494;7.546;2023-03-26T07:28:58;99712.66;;;16.65;51.60
40788;BME280;26497;52.494;7.546;2023-03-26T07:31:32;99708.69;;;16.53;51.23
40788;BME280;26497;52.494;7.546;2023-03-26T07:34:11;99711.28;;;16.32;50.53
40788;BME280;26497;52.494;7.546;2023-03-26T07:36:46;99705.22;;;16.29;50.97
40788;BME280;26497;52.494;7.546;2023-03-26T07:39:34;99711.13;;;16.37;51.47
40788;BME280;26497;52.494;7.546;2023-03-26T07:42:20;99707.22;;;16.24;50.18
40788;BME280;26497;52.494;7.546;2023-03-26T07:44:55;99702.13;;;16.17;51.32
40788;BME280;26497;52.494;7.546;2023-03-26T07:47:30;99699.72;;;16.33;49.44
40788;BME280;26497;52.494;7.546;2023-03-26T07:49:59;99703.88;;;16.41;49.76
40788;BME280;26497;52.494;7.546;2023-03-26T07:52:29;99699.03;;;16.73;47.89
40788;BME280;26497;52.494;7.546;2023-03-26T07:54:57;99695.00;;;16.85;47.31
40788;BME280;26497;52.494;7.546;2023-03-26T07:57:35;99693.13;;;17.09;48.38
40788;BME280;26497;52.494;7.546;2023-03-26T08:00:13;99684.25;;;17.50;48.34
40788;BME280;26497;52.494;7.546;2023-03-26T08:03:01;99686.91;;;18.09;46.18
40788;BME280;26497;52.494;7.546;2023-03-26T08:05:39;99689.66;;;18.07;44.52
40788;BME280;26497;52.494;7.546;2023-03-26T08:08:16;99691.09;;;18.15;45.37
40788;BME280;26497;52.494;7.546;2023-03-26T08:11:02;99692.75;;;18.17;43.37
40788;BME280;26497;52.494;7.546;2023-03-26T08:13:46;99688.94;;;18.04;43.66
40788;BME280;26497;52.494;7.546;2023-03-26T08:16:22;99694.34;;;17.62;44.37
40788;BME280;26497;52.494;7.546;2023-03-26T08:18:59;99698.41;;;17.50;43.60
40788;BME280;26497;52.494;7.546;2023-03-26T08:21:33;99691.38;;;17.29;44.29
40788;BME280;26497;52.494;7.546;2023-03-26T08:24:07;99690.72;;;17.23;45.16
40788;BME280;26497;52.494;7.546;2023-03-26T08:26:42;99693.75;;;16.93;45.78
40788;BME280;26497;52.494;7.546;2023-03-26T08:29:21;99691.59;;;16.81;46.54
40788;BME280;26497;52.494;7.546;2023-03-26T08:31:52;99696.53;;;16.90;47.25
40788;BME280;26497;52.494;7.546;2023-03-26T08:34:20;99697.59;;;17.29;47.57
40788;BME280;26497;52.494;7.546;2023-03-26T08:36:47;99699.75;;;18.01;46.81
40788;BME280;26497;52.494;7.546;2023-03-26T08:39:16;99695.88;;;18.64;42.92
40788;BME280;26497;52.494;7.546;2023-03-26T08:42:44;99694.84;;;18.66;42.75
40788;BME280;26497;52.494;7.546;2023-03-26T08:46:01;99692.75;;;18.73;43.01
40788;BME280;26497;52.494;7.546;2023-03-26T08:49:00;99696.44;;;18.88;41.77
40788;BME280;26497;52.494;7.546;2023-03-26T08:52:13;99695.91;;;18.81;41.70
40788;BME280;26497;52.494;7.546;2023-03-26T09:01:49;99688.78;;;18.07;42.04
40788;BME280;26497;52.494;7.546;2023-03-26T09:05:05;99696.59;;;17.72;43.21
40788;BME280;26497;52.494;7.546;2023-03-26T09:12:04;99691.25;;;17.32;42.94
40788;BME280;26497;52.494;7.546;2023-03-26T09:22:11;99685.44;;;17.43;44.37
40788;BME280;26497;52.494;7.546;2023-03-26T09:25:32;99683.97;;;17.56;44.34
40788;BME280;26497;52.494;7.546;2023-03-26T09:28:39;99686.56;;;17.58;43.26
40788;BME280;26497;52.494;7.546;2023-03-26T09:32:01;99674.91;;;17.60;43.46
40788;BME280;26497;52.494;7.546;2023-03-26T09:34:55;99676.16;;;17.51;43.33
40788;BME280;26497;52.494;7.546;2023-03-26T09:37:32;99672.13;;;17.43;43.51
40788;BME280;26497;52.494;7.546;2023-03-26T09:40:15;99676.00;;;17.35;43.44
40788;BME280;26497;52.494;7.546;2023-03-26T09:42:47;99668.28;;;17.29;44.14
40788;BME280;26497;52.494;7.546;2023-03-26T09:45:51;99669.47;;;17.22;44.20
40788;BME280;26497;52.494;7.546;2023-03-26T09:48:37;99671.38;;;17.39;43.90
40788;BME280;26497;52.494;7.546;2023-03-26T09:51:34;99670.56;;;17.58;43.40
40788;BME280;26497;52.494;7.546;2023-03-26T09:54:40;99671.81;;;17.69;42.32
40788;BME280;26497;52.494;7.546;2023-03-26T09:57:19;99675.47;;;17.67;42.59
40788;BME280;26497;52.494;7.546;2023-03-26T10:00:27;99678.59;;;17.77;43.67
40788;BME280;26497;52.494;7.546;2023-03-26T10:03:17;99676.94;;;18.32;42.27
40788;BME280;26497;52.494;7.546;2023-03-26T10:06:18;99680.53;;;18.50;41.18
40788;BME280;26497;52.494;7.546;2023-03-26T10:09:19;99681.72;;;18.25;41.68
40788;BME280;26497;52.494;7.546;2023-03-26T10:12:09;99677.72;;;18.34;41.07
40788;BME280;26497;52.494;7.546;2023-03-26T10:14:44;99675.41;;;18.45;40.99
40788;BME280;26497;52.494;7.546;2023-03-26T10:17:37;99674.25;;;18.68;40.33
40788;BME280;26497;52.494;7.546;2023-03-26T10:20:27;99677.97;;;18.66;39.09
40788;BME280;26497;52.494;7.546;2023-03-26T10:23:07;99684.16;;;18.49;39.72
40788;BME280;26497;52.494;7.546;2023-03-26T10:25:56;99682.72;;;18.22;39.82
40788;BME280;26497;52.494;7.546;2023-03-26T10:28:50;99689.38;;;18.13;40.02
40788;BME280;26497;52.494;7.546;2023-03-26T10:31:39;99689.06;;;18.01;40.29
40788;BME280;26497;52.494;7.546;2023-03-26T10:34:27;99696.25;;;17.98;40.46
40788;BME280;26497;52.494;7.546;2023-03-26T10:37:05;99681.31;;;17.35;41.39
40788;BME280;26497;52.494;7.546;2023-03-26T10:40:08;99693.56;;;16.98;42.61
40788;BME280;26497;52.494;7.546;2023-03-26T10:43:06;99692.97;;;16.69;43.19
40788;BME280;26497;52.494;7.546;2023-03-26T10:46:11;99690.00;;;16.77;43.80
40788;BME280;26497;52.494;7.546;2023-03-26T10:49:39;99696.38;;;17.16;43.75
40788;BME280;26497;52.494;7.546;2023-03-26T10:52:15;99696.00;;;16.82;43.57
40788;BME280;26497;52.494;7.546;2023-03-26T10:54:53;99693.34;;;16.15;44.97
40788;BME280;26497;52.494;7.546;2023-03-26T10:57:32;99709.81;;;15.77;46.32
40788;BME280;26497;52.494;7.546;2023-03-26T11:00:14;99699.38;;;15.47;46.88
40788;BME280;26497;52.494;7.546;2023-03-26T11:02:49;99705.81;;;15.40;46.73
40788;BME280;26497;52.494;7.546;2023-03-26T11:05:45;99695.00;;;15.70;46.82
40788;BME280;26497;52.494;7.546;2023-03-26T11:08:20;99702.06;;;15.95;46.86
40788;BME280;26497;52.494;7.546;2023-03-26T11:10:57;99702.97;;;16.18;45.39
40788;BME280;26497;52.494;7.546;2023-03-26T11:13:41;99699.47;;;16.40;44.47
40788;BME280;26497;52.494;7.546;2023-03-26T11:16:15;99697.00;;;16.35;44.49
40788;BME280;26497;52.494;7.546;2023-03-26T11:18:50;99698.56;;;15.95;44.77
40788;BME280;26497;52.494;7.546;2023-03-26T11:21:26;99704.84;;;15.92;45.00
40788;BME280;26497;52.494;7.546;2023-03-26T11:24:30;99691.81;;;16.32;44.35
40788;BME280;26497;52.494;7.546;2023-03-26T11:27:08;99693.50;;;16.77;43.27
40788;BME280;26497;52.494;7.546;2023-03-26T11:29:48;99694.34;;;16.57;42.39
40788;BME280;26497;52.494;7.546;2023-03-26T11:32:21;99692.59;;;17.01;42.83
40788;BME280;26497;52.494;7.546;2023-03-26T11:34:58;99705.25;;;17.16;41.08
40788;BME280;26497;52.494;7.546;2023-03-26T11:37:32;99693.88;;;16.90;40.72
40788;BME280;26497;52.494;7.546;2023-03-26T11:40:03;99699.38;;;16.86;41.30
40788;BME280;26497;52.494;7.546;2023-03-26T11:42:32;99700.72;;;17.18;41.13
40788;BME280;26497;52.494;7.546;2023-03-26T11:45:04;99700.38;;;17.26;39.97
40788;BME280;26497;52.494;7.546;2023-03-26T11:47:37;99706.13;;;16.94;40.75
40788;BME280;26497;52.494;7.546;2023-03-26T11:50:13;99705.19;;;16.95;41.19
40788;BME280;26497;52.494;7.546;2023-03-26T11:52:42;99698.13;;;17.17;39.61
40788;BME280;26497;52.494;7.546;2023-03-26T11:55:11;99696.91;;;17.45;39.76
40788;BME280;26497;52.494;7.546;2023-03-26T11:57:42;99700.66;;;17.41;40.04
40788;BME280;26497;52.494;7.546;2023-03-26T12:00:15;99698.91;;;17.60;38.92
40788;BME280;26497;52.494;7.546;2023-03-26T12:02:46;99704.94;;;18.04;39.42
40788;BME280;26497;52.494;7.546;2023-03-26T12:05:20;99701.28;;;18.80;37.36
40788;BME280;26497;52.494;7.546;2023-03-26T12:07:55;99698.88;;;18.19;36.35
40788;BME280;26497;52.494;7.546;2023-03-26T12:10:25;99701.84;;;18.32;37.33
40788;BME280;26497;52.494;7.546;2023-03-26T12:12:55;99702.00;;;18.66;37.82
40788;BME280;26497;52.494;7.546;2023-03-26T12:15:24;99705.75;;;18.98;36.50
40788;BME280;26497;52.494;7.546;2023-03-26T12:17:54;99700.63;;;18.94;36.07
40788;BME280;26497;52.494;7.546;2023-03-26T12:20:32;99703.09;;;18.62;36.43
40788;BME280;26497;52.494;7.546;2023-03-26T12:23:04;99701.75;;;18.53;36.53
40788;BME280;26497;52.494;7.546;2023-03-26T12:25:34;99711.19;;;18.03;36.25
40788;BME280;26497;52.494;7.546;2023-03-26T12:28:15;99712.84;;;17.86;36.85
40788;BME280;26497;52.494;7.546;2023-03-26T12:30:51;99706.63;;;17.46;37.99
40788;BME280;26497;52.494;7.546;2023-03-26T12:33:26;99704.75;;;17.68;37.86
40788;BME280;26497;52.494;7.546;2023-03-26T12:35:55;99700.44;;;17.85;37.38
40788;BME280;26497;52.494;7.546;2023-03-26T12:38:30;99698.28;;;17.53;37.57
40788;BME280;26497;52.494;7.546;2023-03-26T12:41:06;99703.53;;;17.76;37.40
40788;BME280;26497;52.494;7.546;2023-03-26T12:43:39;99702.06;;;17.68;37.36
40788;BME280;26497;52.494;7.546;2023-03-26T12:46:26;99698.56;;;17.87;36.89
40788;BME280;26497;52.494;7.546;2023-03-26T12:48:55;99704.78;;;18.45;36.96
40788;BME280;26497;52.494;7.546;2023-03-26T12:51:38;99700.03;;;18.33;36.38
40788;BME280;26497;52.494;7.546;2023-03-26T12:54:25;99697.44;;;18.68;35.94
40788;BME280;26497;52.494;7.546;2023-03-26T12:57:10;99701.94;;;18.85;36.20
40788;BME280;26497;52.494;7.546;2023-03-26T13:03:07;99705.69;;;20.02;32.68
40788;BME280;26497;52.494;7.546;2023-03-26T13:05:46;99708.28;;;19.70;33.23
40788;BME280;26497;52.494;7.546;2023-03-26T13:11:30;99715.91;;;18.90;34.07
40788;BME280;26497;52.494;7.546;2023-03-26T13:14:10;99706.34;;;18.49;34.55
40788;BME280;26497;52.494;7.546;2023-03-26T13:16:46;99709.69;;;18.35;34.54
40788;BME280;26497;52.494;7.546;2023-03-26T13:19:21;99709.03;;;18.49;34.71
40788;BME280;26497;52.494;7.546;2023-03-26T13:22:05;99705.59;;;19.01;34.01
40788;BME280;26497;52.494;7.546;2023-03-26T13:24:46;99709.41;;;18.78;34.07
40788;BME280;26497;52.494;7.546;2023-03-26T13:27:43;99697.31;;;19.24;34.30
40788;BME280;26497;52.494;7.546;2023-03-26T13:30:30;99704.75;;;20.19;32.66
40788;BME280;26497;52.494;7.546;2023-03-26T13:33:15;99697.66;;;20.18;30.90
40788;BME280;26497;52.494;7.546;2023-03-26T13:35:57;99697.63;;;19.86;32.22
40788;BME280;26497;52.494;7.546;2023-03-26T13:38:34;99704.56;;;20.23;31.09
40788;BME280;26497;52.494;7.546;2023-03-26T13:41:10;99707.66;;;19.65;32.06
40788;BME280;26497;52.494;7.546;2023-03-26T13:43:55;99709.59;;;19.28;31.97
40788;BME280;26497;52.494;7.546;2023-03-26T13:46:32;99712.88;;;19.33;32.64
40788;BME280;26497;52.494;7.546;2023-03-26T13:49:03;99714.19;;;19.08;32.60
40788;BME280;26497;52.494;7.546;2023-03-26T13:51:41;99711.63;;;18.51;33.21
40788;BME280;26497;52.494;7.546;2023-03-26T13:54:17;99714.00;;;18.38;34.48
40788;BME280;26497;52.494;7.546;2023-03-26T13:56:50;99714.38;;;18.49;33.69
40788;BME280;26497;52.494;7.546;2023-03-26T13:59:25;99709.31;;;18.43;34.25
40788;BME280;26497;52.494;7.546;2023-03-26T14:01:58;99717.06;;;18.30;33.51
40788;BME280;26497;52.494;7.546;2023-03-26T14:04:32;99712.06;;;18.22;33.49